sensor_id;sensor_type;location;lat;lon;timestamp;P1;durP1;ratioP1;P2;durP2;ratioP2
42802;SDS011;28447;48.682;9.022;2024-03-08T05:00:45;36.50;;;18.90;;
42802;SDS011;28447;48.682;9.022;2024-03-08T05:03:11;41.60;;;19.43;;
42802;SDS011;28447;48.682;9.022;2024-03-08T05:05:37;38.83;;;19.90;;
42802;SDS011;28447;48.682;9.022;2024-03-08T05:08:03;40.43;;;19.40;;
42802;SDS011;28447;48.682;9.022;2024-03-08T05:10:30;40.03;;;19.00;;
42802;SDS011;28447;48.682;9.022;2024-03-08T05:12:56;35.80;;;18.67;;
42802;SDS011;28447;48.682;9.022;2024-03-08T05:15:22;40.23;;;19.63;;
42802;SDS011;28447;48.682;9.022;2024-03-08T05:17:48;37.03;;;18.93;;
42802;SDS011;28447;48.682;9.022;2024-03-08T05:20:14;38.30;;;20.53;;
42802;SDS011;28447;48.682;9.022;2024-03-08T05:22:42;37.03;;;19.97;;
42802;SDS011;28447;48.682;9.022;2024-03-08T05:25:08;39.93;;;19.60;;
42802;SDS011;28447;48.682;9.022;2024-03-08T05:27:35;44.13;;;21.70;;
42802;SDS011;28447;48.682;9.022;2024-03-08T05:30:02;45.60;;;21.33;;
42802;SDS011;28447;48.682;9.022;2024-03-08T05:32:29;39.70;;;19.70;;
42802;SDS011;28447;48.682;9.022;2024-03-08T05:34:55;42.90;;;22.30;;
42802;SDS011;28447;48.682;9.022;2024-03-08T05:37:21;41.47;;;19.97;;
42802;SDS011;28447;48.682;9.022;2024-03-08T05:39:47;38.43;;;20.00;;
42802;SDS011;28447;48.682;9.022;2024-03-08T05:42:13;44.63;;;21.53;;
42802;SDS011;28447;48.682;9.022;2024-03-08T05:44:39;38.97;;;19.67;;
42802;SDS011;28447;48.682;9.022;2024-03-08T05:47:05;40.77;;;20.00;;
42802;SDS011;28447;48.682;9.022;2024-03-08T05:49:32;42.67;;;20.70;;
42802;SDS011;28447;48.682;9.022;2024-03-08T05:51:59;49.53;;;22.90;;
42802;SDS011;28447;48.682;9.022;2024-03-08T05:54:25;41.27;;;20.30;;
42802;SDS011;28447;48.682;9.022;2024-03-08T05:56:52;44.37;;;21.13;;
42802;SDS011;28447;48.682;9.022;2024-03-08T05:59:19;42.47;;;21.50;;
42802;SDS011;28447;48.682;9.022;2024-03-08T06:01:45;47.50;;;21.57;;
42802;SDS011;28447;48.682;9.022;2024-03-08T06:04:12;48.70;;;22.37;;
42802;SDS011;28447;48.682;9.022;2024-03-08T06:06:39;40.00;;;20.47;;
42802;SDS011;28447;48.682;9.022;2024-03-08T06:09:05;52.67;;;25.43;;
42802;SDS011;28447;48.682;9.022;2024-03-08T06:11:36;60.40;;;29.80;;
42802;SDS011;28447;48.682;9.022;2024-03-08T06:14:03;61.47;;;29.43;;
42802;SDS011;28447;48.682;9.022;2024-03-08T06:16:29;70.67;;;30.13;;
42802;SDS011;28447;48.682;9.022;2024-03-08T06:18:58;63.73;;;32.23;;
42802;SDS011;28447;48.682;9.022;2024-03-08T06:21:27;68.63;;;30.43;;
42802;SDS011;28447;48.682;9.022;2024-03-08T06:23:56;58.37;;;28.20;;
42802;SDS011;28447;48.682;9.022;2024-03-08T06:26:24;59.43;;;26.10;;
42802;SDS011;28447;48.682;9.022;2024-03-08T06:28:53;59.17;;;27.37;;
42802;SDS011;28447;48.682;9.022;2024-03-08T06:31:19;52.03;;;26.73;;
42802;SDS011;28447;48.682;9.022;2024-03-08T06:33:45;50.03;;;24.53;;
42802;SDS011;28447;48.682;9.022;2024-03-08T06:36:11;43.43;;;23.13;;
42802;SDS011;28447;48.682;9.022;2024-03-08T06:38:38;53.87;;;27.50;;
42802;SDS011;28447;48.682;9.022;2024-03-08T06:41:08;63.77;;;26.73;;
42802;SDS011;28447;48.682;9.022;2024-03-08T06:43:34;51.83;;;26.93;;
42802;SDS011;28447;48.682;9.022;2024-03-08T06:46:00;58.00;;;28.27;;
42802;SDS011;28447;48.682;9.022;2024-03-08T06:48:28;51.40;;;25.77;;
42802;SDS011;28447;48.682;9.022;2024-03-08T06:50:54;54.83;;;24.70;;
42802;SDS011;28447;48.682;9.022;2024-03-08T06:53:21;55.50;;;25.00;;
42802;SDS011;28447;48.682;9.022;2024-03-08T06:55:47;50.00;;;24.37;;
42802;SDS011;28447;48.682;9.022;2024-03-08T06:58:13;49.07;;;25.60;;
42802;SDS011;28447;48.682;9.022;2024-03-08T07:00:39;49.10;;;25.77;;
42802;SDS011;28447;48.682;9.022;2024-03-08T07:03:08;50.47;;;24.03;;
42802;SDS011;28447;48.682;9.022;2024-03-08T07:05:37;47.80;;;22.70;;
42802;SDS011;28447;48.682;9.022;2024-03-08T07:08:05;46.57;;;22.97;;
42802;SDS011;28447;48.682;9.022;2024-03-08T07:10:31;46.70;;;24.20;;
42802;SDS011;28447;48.682;9.022;2024-03-08T07:12:57;45.00;;;21.67;;
42802;SDS011;28447;48.682;9.022;2024-03-08T07:15:23;41.37;;;21.43;;
42802;SDS011;28447;48.682;9.022;2024-03-08T07:17:50;40.90;;;22.70;;
42802;SDS011;28447;48.682;9.022;2024-03-08T07:20:17;44.60;;;20.93;;
42802;SDS011;28447;48.682;9.022;2024-03-08T07:22:44;43.50;;;21.27;;
42802;SDS011;28447;48.682;9.022;2024-03-08T07:25:15;38.73;;;19.93;;
42802;SDS011;28447;48.682;9.022;2024-03-08T07:27:49;40.20;;;20.60;;
42802;SDS011;28447;48.682;9.022;2024-03-08T07:30:16;43.30;;;20.73;;
42802;SDS011;28447;48.682;9.022;2024-03-08T07:33:02;38.10;;;21.63;;
42802;SDS011;28447;48.682;9.022;2024-03-08T07:35:29;40.57;;;21.20;;
42802;SDS011;28447;48.682;9.022;2024-03-08T07:37:56;40.13;;;22.00;;
42802;SDS011;28447;48.682;9.022;2024-03-08T07:40:22;42.60;;;20.50;;
42802;SDS011;28447;48.682;9.022;2024-03-08T07:42:49;37.73;;;19.70;;
42802;SDS011;28447;48.682;9.022;2024-03-08T07:45:16;42.53;;;21.40;;
42802;SDS011;28447;48.682;9.022;2024-03-08T07:47:42;34.77;;;18.97;;
42802;SDS011;28447;48.682;9.022;2024-03-08T07:50:08;35.03;;;19.70;;
42802;SDS011;28447;48.682;9.022;2024-03-08T07:52:35;33.90;;;20.10;;
42802;SDS011;28447;48.682;9.022;2024-03-08T07:55:04;31.83;;;19.03;;
42802;SDS011;28447;48.682;9.022;2024-03-08T07:57:31;32.50;;;19.20;;
42802;SDS011;28447;48.682;9.022;2024-03-08T07:59:57;34.97;;;19.23;;
42802;SDS011;28447;48.682;9.022;2024-03-08T08:02:23;29.70;;;18.23;;
42802;SDS011;28447;48.682;9.022;2024-03-08T08:04:49;30.97;;;17.03;;
42802;SDS011;28447;48.682;9.022;2024-03-08T08:07:15;36.20;;;19.87;;
42802;SDS011;28447;48.682;9.022;2024-03-08T08:09:41;31.90;;;17.93;;
42802;SDS011;28447;48.682;9.022;2024-03-08T08:12:10;32.97;;;17.93;;
42802;SDS011;28447;48.682;9.022;2024-03-08T08:14:37;30.57;;;16.77;;
42802;SDS011;28447;48.682;9.022;2024-03-08T08:17:04;29.90;;;18.47;;
42802;SDS011;28447;48.682;9.022;2024-03-08T08:19:30;35.97;;;20.00;;
42802;SDS011;28447;48.682;9.022;2024-03-08T08:21:57;36.03;;;18.97;;
42802;SDS011;28447;48.682;9.022;2024-03-08T08:24:23;27.50;;;16.33;;
42802;SDS011;28447;48.682;9.022;2024-03-08T08:26:49;30.77;;;16.33;;
42802;SDS011;28447;48.682;9.022;2024-03-08T08:29:15;29.23;;;18.17;;
42802;SDS011;28447;48.682;9.022;2024-03-08T08:31:41;29.00;;;16.17;;
42802;SDS011;28447;48.682;9.022;2024-03-08T08:34:09;33.37;;;17.90;;
42802;SDS011;28447;48.682;9.022;2024-03-08T08:36:36;29.70;;;18.40;;
42802;SDS011;28447;48.682;9.022;2024-03-08T08:39:03;30.73;;;17.60;;
42802;SDS011;28447;48.682;9.022;2024-03-08T08:41:30;37.70;;;20.40;;
42802;SDS011;28447;48.682;9.022;2024-03-08T08:43:56;29.33;;;17.17;;
42802;SDS011;28447;48.682;9.022;2024-03-08T08:46:22;26.80;;;16.20;;
42802;SDS011;28447;48.682;9.022;2024-03-08T08:48:49;32.67;;;18.20;;
42802;SDS011;28447;48.682;9.022;2024-03-08T08:51:15;24.43;;;15.30;;
42802;SDS011;28447;48.682;9.022;2024-03-08T08:53:41;29.90;;;16.50;;
42802;SDS011;28447;48.682;9.022;2024-03-08T08:56:14;26.20;;;15.60;;
42802;SDS011;28447;48.682;9.022;2024-03-08T08:58:43;28.80;;;16.20;;
42802;SDS011;28447;48.682;9.022;2024-03-08T09:01:10;30.20;;;16.40;;
42802;SDS011;28447;48.682;9.022;2024-03-08T09:03:36;26.53;;;16.70;;
42802;SDS011;28447;48.682;9.022;2024-03-08T09:06:03;29.60;;;16.03;;
42802;SDS011;28447;48.682;9.022;2024-03-08T09:08:30;25.43;;;15.37;;
42802;SDS011;28447;48.682;9.022;2024-03-08T09:10:56;28.53;;;16.30;;
42802;SDS011;28447;48.682;9.022;2024-03-08T09:13:22;26.13;;;16.37;;
42802;SDS011;28447;48.682;9.022;2024-03-08T09:15:48;29.40;;;16.43;;
42802;SDS011;28447;48.682;9.022;2024-03-08T09:18:14;27.30;;;15.63;;
42802;SDS011;28447;48.682;9.022;2024-03-08T09:20:40;31.83;;;17.60;;
42802;SDS011;28447;48.682;9.022;2024-03-08T09:23:06;26.67;;;15.90;;
42802;SDS011;28447;48.682;9.022;2024-03-08T09:25:33;23.83;;;14.67;;
42802;SDS011;28447;48.682;9.022;2024-03-08T09:27:59;27.57;;;16.53;;
42802;SDS011;28447;48.682;9.022;2024-03-08T09:30:25;26.90;;;15.63;;
42802;SDS011;28447;48.682;9.022;2024-03-08T09:32:51;26.47;;;15.70;;
42802;SDS011;28447;48.682;9.022;2024-03-08T09:35:17;30.17;;;17.37;;
42802;SDS011;28447;48.682;9.022;2024-03-08T09:37:43;29.40;;;18.00;;
42802;SDS011;28447;48.682;9.022;2024-03-08T09:40:09;28.60;;;16.60;;
42802;SDS011;28447;48.682;9.022;2024-03-08T09:42:40;29.53;;;17.87;;
42802;SDS011;28447;48.682;9.022;2024-03-08T09:45:08;28.13;;;16.50;;
42802;SDS011;28447;48.682;9.022;2024-03-08T09:47:42;28.70;;;16.70;;
42802;SDS011;28447;48.682;9.022;2024-03-08T09:50:08;25.27;;;15.70;;
42802;SDS011;28447;48.682;9.022;2024-03-08T09:52:38;30.13;;;16.43;;
42802;SDS011;28447;48.682;9.022;2024-03-08T09:55:08;25.77;;;15.83;;
42802;SDS011;28447;48.682;9.022;2024-03-08T09:57:36;28.53;;;16.47;;
42802;SDS011;28447;48.682;9.022;2024-03-08T10:00:03;27.00;;;16.07;;
42802;SDS011;28447;48.682;9.022;2024-03-08T10:02:46;26.60;;;14.80;;
42802;SDS011;28447;48.682;9.022;2024-03-08T10:05:13;26.77;;;15.57;;
42802;SDS011;28447;48.682;9.022;2024-03-08T10:07:39;26.83;;;16.43;;
42802;SDS011;28447;48.682;9.022;2024-03-08T10:10:05;25.37;;;15.80;;
42802;SDS011;28447;48.682;9.022;2024-03-08T10:12:34;28.20;;;15.73;;
42802;SDS011;28447;48.682;9.022;2024-03-08T10:15:00;33.30;;;16.60;;
42802;SDS011;28447;48.682;9.022;2024-03-08T10:17:26;27.87;;;15.60;;
42802;SDS011;28447;48.682;9.022;2024-03-08T10:19:57;25.50;;;15.70;;
42802;SDS011;28447;48.682;9.022;2024-03-08T10:22:25;29.53;;;16.70;;
42802;SDS011;28447;48.682;9.022;2024-03-08T10:24:51;30.47;;;15.57;;
42802;SDS011;28447;48.682;9.022;2024-03-08T10:27:17;27.07;;;15.03;;
42802;SDS011;28447;48.682;9.022;2024-03-08T10:29:46;20.50;;;13.83;;
42802;SDS011;28447;48.682;9.022;2024-03-08T10:32:12;28.07;;;14.90;;
42802;SDS011;28447;48.682;9.022;2024-03-08T10:34:39;28.07;;;16.50;;
42802;SDS011;28447;48.682;9.022;2024-03-08T10:37:07;26.50;;;16.57;;
42802;SDS011;28447;48.682;9.022;2024-03-08T10:39:37;29.00;;;16.53;;
42802;SDS011;28447;48.682;9.022;2024-03-08T10:42:04;26.63;;;16.10;;
42802;SDS011;28447;48.682;9.022;2024-03-08T10:44:32;24.17;;;15.00;;
42802;SDS011;28447;48.682;9.022;2024-03-08T10:47:08;25.47;;;15.33;;
42802;SDS011;28447;48.682;9.022;2024-03-08T10:49:44;27.80;;;15.13;;
42802;SDS011;28447;48.682;9.022;2024-03-08T10:52:15;25.23;;;15.33;;
42802;SDS011;28447;48.682;9.022;2024-03-08T10:54:42;23.77;;;15.00;;
42802;SDS011;28447;48.682;9.022;2024-03-08T10:57:09;24.73;;;14.90;;
42802;SDS011;28447;48.682;9.022;2024-03-08T10:59:36;25.23;;;15.40;;
42802;SDS011;28447;48.682;9.022;2024-03-08T11:02:03;23.03;;;14.97;;
42802;SDS011;28447;48.682;9.022;2024-03-08T11:04:30;25.00;;;15.60;;
42802;SDS011;28447;48.682;9.022;2024-03-08T11:07:01;26.00;;;15.57;;
42802;SDS011;28447;48.682;9.022;2024-03-08T11:09:32;20.97;;;14.20;;
42802;SDS011;28447;48.682;9.022;2024-03-08T11:14:44;21.00;;;14.20;;
42802;SDS011;28447;48.682;9.022;2024-03-08T11:19:52;22.13;;;14.30;;
42802;SDS011;28447;48.682;9.022;2024-03-08T11:22:22;23.77;;;15.10;;
42802;SDS011;28447;48.682;9.022;2024-03-08T11:24:49;22.83;;;14.80;;
42802;SDS011;28447;48.682;9.022;2024-03-08T11:27:15;21.20;;;15.03;;
42802;SDS011;28447;48.682;9.022;2024-03-08T11:29:41;23.10;;;15.50;;
42802;SDS011;28447;48.682;9.022;2024-03-08T11:34:36;23.80;;;15.37;;
42802;SDS011;28447;48.682;9.022;2024-03-08T11:37:05;20.70;;;13.43;;
42802;SDS011;28447;48.682;9.022;2024-03-08T11:39:34;20.20;;;14.30;;
42802;SDS011;28447;48.682;9.022;2024-03-08T11:42:02;23.97;;;14.93;;
42802;SDS011;28447;48.682;9.022;2024-03-08T11:44:28;21.57;;;14.33;;
42802;SDS011;28447;48.682;9.022;2024-03-08T11:46:56;21.00;;;14.00;;
42802;SDS011;28447;48.682;9.022;2024-03-08T11:49:23;20.77;;;13.73;;
42802;SDS011;28447;48.682;9.022;2024-03-08T11:51:51;20.10;;;13.90;;
42802;SDS011;28447;48.682;9.022;2024-03-08T11:54:18;20.73;;;14.27;;
42802;SDS011;28447;48.682;9.022;2024-03-08T11:56:44;20.33;;;14.87;;
42802;SDS011;28447;48.682;9.022;2024-03-08T11:59:12;20.20;;;14.60;;
42802;SDS011;28447;48.682;9.022;2024-03-08T12:01:39;18.67;;;13.80;;
42802;SDS011;28447;48.682;9.022;2024-03-08T12:04:05;21.10;;;15.53;;
42802;SDS011;28447;48.682;9.022;2024-03-08T12:06:38;23.43;;;14.73;;
42802;SDS011;28447;48.682;9.022;2024-03-08T12:09:07;18.83;;;14.20;;
42802;SDS011;28447;48.682;9.022;2024-03-08T12:11:34;19.17;;;14.23;;
42802;SDS011;28447;48.682;9.022;2024-03-08T12:14:01;20.17;;;14.30;;
42802;SDS011;28447;48.682;9.022;2024-03-08T12:16:27;20.07;;;16.10;;
42802;SDS011;28447;48.682;9.022;2024-03-08T12:18:53;17.90;;;14.43;;
42802;SDS011;28447;48.682;9.022;2024-03-08T12:21:19;21.70;;;15.67;;
42802;SDS011;28447;48.682;9.022;2024-03-08T12:23:47;18.40;;;14.50;;
42802;SDS011;28447;48.682;9.022;2024-03-08T12:26:23;19.40;;;15.17;;
42802;SDS011;28447;48.682;9.022;2024-03-08T12:28:49;18.43;;;14.53;;
42802;SDS011;28447;48.682;9.022;2024-03-08T12:31:18;17.40;;;13.83;;
42802;SDS011;28447;48.682;9.022;2024-03-08T12:33:51;17.50;;;14.97;;
42802;SDS011;28447;48.682;9.022;2024-03-08T12:36:17;19.40;;;16.40;;
42802;SDS011;28447;48.682;9.022;2024-03-08T12:38:44;18.13;;;16.20;;
42802;SDS011;28447;48.682;9.022;2024-03-08T12:41:13;22.40;;;17.00;;
42802;SDS011;28447;48.682;9.022;2024-03-08T12:43:39;17.73;;;15.83;;
42802;SDS011;28447;48.682;9.022;2024-03-08T12:46:05;19.30;;;16.83;;
42802;SDS011;28447;48.682;9.022;2024-03-08T12:48:34;18.17;;;15.87;;
42802;SDS011;28447;48.682;9.022;2024-03-08T12:51:06;18.53;;;16.53;;
42802;SDS011;28447;48.682;9.022;2024-03-08T12:53:33;18.93;;;16.60;;
42802;SDS011;28447;48.682;9.022;2024-03-08T12:56:00;19.60;;;17.50;;
42802;SDS011;28447;48.682;9.022;2024-03-08T12:58:26;20.27;;;18.00;;
42802;SDS011;28447;48.682;9.022;2024-03-08T13:00:52;19.77;;;17.77;;
42802;SDS011;28447;48.682;9.022;2024-03-08T13:03:18;19.47;;;17.50;;
42802;SDS011;28447;48.682;9.022;2024-03-08T13:05:44;19.93;;;17.93;;
42802;SDS011;28447;48.682;9.022;2024-03-08T13:08:10;18.83;;;16.93;;
42802;SDS011;28447;48.682;9.022;2024-03-08T13:10:40;20.60;;;18.60;;
42802;SDS011;28447;48.682;9.022;2024-03-08T13:13:08;21.27;;;19.17;;
42802;SDS011;28447;48.682;9.022;2024-03-08T13:15:35;21.17;;;19.10;;
42802;SDS011;28447;48.682;9.022;2024-03-08T13:18:01;20.53;;;18.63;;
42802;SDS011;28447;48.682;9.022;2024-03-08T13:20:28;21.20;;;19.00;;
42802;SDS011;28447;48.682;9.022;2024-03-08T13:22:55;19.90;;;17.90;;
42802;SDS011;28447;48.682;9.022;2024-03-08T13:25:21;21.90;;;19.70;;
42802;SDS011;28447;48.682;9.022;2024-03-08T13:27:49;21.63;;;19.53;;
42802;SDS011;28447;48.682;9.022;2024-03-08T13:30:15;21.30;;;19.20;;
42802;SDS011;28447;48.682;9.022;2024-03-08T13:32:44;23.20;;;20.70;;
42802;SDS011;28447;48.682;9.022;2024-03-08T13:35:10;22.50;;;20.10;;
42802;SDS011;28447;48.682;9.022;2024-03-08T13:37:40;21.90;;;19.60;;
42802;SDS011;28447;48.682;9.022;2024-03-08T13:40:06;22.07;;;19.83;;
42802;SDS011;28447;48.682;9.022;2024-03-08T13:42:36;22.03;;;19.93;;
42802;SDS011;28447;48.682;9.022;2024-03-08T13:45:03;20.80;;;18.67;;
42802;SDS011;28447;48.682;9.022;2024-03-08T13:47:29;22.53;;;20.33;;
42802;SDS011;28447;48.682;9.022;2024-03-08T13:49:56;22.00;;;19.70;;
42802;SDS011;28447;48.682;9.022;2024-03-08T13:52:22;22.00;;;19.70;;
42802;SDS011;28447;48.682;9.022;2024-03-08T13:54:50;21.30;;;19.20;;
42802;SDS011;28447;48.682;9.022;2024-03-08T13:57:16;22.20;;;20.00;;
42802;SDS011;28447;48.682;9.022;2024-03-08T13:59:43;24.20;;;21.70;;
42802;SDS011;28447;48.682;9.022;2024-03-08T14:02:09;23.30;;;20.80;;
42802;SDS011;28447;48.682;9.022;2024-03-08T14:04:38;23.90;;;21.37;;
42802;SDS011;28447;48.682;9.022;2024-03-08T14:07:06;23.40;;;21.00;;
42802;SDS011;28447;48.682;9.022;2024-03-08T14:09:33;22.27;;;19.87;;
42802;SDS011;28447;48.682;9.022;2024-03-08T14:12:05;21.83;;;19.63;;
42802;SDS011;28447;48.682;9.022;2024-03-08T14:14:32;22.30;;;20.00;;
42802;SDS011;28447;48.682;9.022;2024-03-08T14:17:02;22.70;;;19.73;;
42802;SDS011;28447;48.682;9.022;2024-03-08T14:19:28;22.67;;;20.37;;
42802;SDS011;28447;48.682;9.022;2024-03-08T14:21:58;26.70;;;20.73;;
42802;SDS011;28447;48.682;9.022;2024-03-08T14:24:25;21.03;;;18.83;;
42802;SDS011;28447;48.682;9.022;2024-03-08T14:26:51;21.63;;;19.43;;
42802;SDS011;28447;48.682;9.022;2024-03-08T14:29:17;22.40;;;20.00;;
42802;SDS011;28447;48.682;9.022;2024-03-08T14:31:43;21.63;;;19.33;;
42802;SDS011;28447;48.682;9.022;2024-03-08T14:34:10;22.73;;;20.33;;
42802;SDS011;28447;48.682;9.022;2024-03-08T14:36:36;22.70;;;18.90;;
42802;SDS011;28447;48.682;9.022;2024-03-08T14:39:03;21.03;;;18.83;;
42802;SDS011;28447;48.682;9.022;2024-03-08T14:41:29;21.13;;;18.93;;
42802;SDS011;28447;48.682;9.022;2024-03-08T14:43:56;24.57;;;20.60;;
42802;SDS011;28447;48.682;9.022;2024-03-08T14:46:22;22.13;;;19.80;;
42802;SDS011;28447;48.682;9.022;2024-03-08T14:48:51;21.63;;;19.50;;
42802;SDS011;28447;48.682;9.022;2024-03-08T14:51:18;21.77;;;19.07;;
42802;SDS011;28447;48.682;9.022;2024-03-08T14:53:46;22.20;;;19.90;;
42802;SDS011;28447;48.682;9.022;2024-03-08T14:56:12;23.53;;;20.50;;
42802;SDS011;28447;48.682;9.022;2024-03-08T14:58:44;21.57;;;19.13;;
42802;SDS011;28447;48.682;9.022;2024-03-08T15:01:11;23.17;;;20.60;;
42802;SDS011;28447;48.682;9.022;2024-03-08T15:03:40;20.67;;;18.53;;
42802;SDS011;28447;48.682;9.022;2024-03-08T15:06:07;22.67;;;19.93;;
42802;SDS011;28447;48.682;9.022;2024-03-08T15:08:37;20.10;;;18.10;;
42802;SDS011;28447;48.682;9.022;2024-03-08T15:11:04;23.07;;;19.70;;
42802;SDS011;28447;48.682;9.022;2024-03-08T15:13:31;21.83;;;19.40;;
42802;SDS011;28447;48.682;9.022;2024-03-08T15:16:09;20.53;;;18.40;;
42802;SDS011;28447;48.682;9.022;2024-03-08T15:18:43;21.30;;;18.60;;
42802;SDS011;28447;48.682;9.022;2024-03-08T15:21:12;21.30;;;19.00;;
42802;SDS011;28447;48.682;9.022;2024-03-08T15:23:45;20.70;;;18.40;;
42802;SDS011;28447;48.682;9.022;2024-03-08T15:26:17;23.20;;;18.80;;
42802;SDS011;28447;48.682;9.022;2024-03-08T15:28:43;22.40;;;19.53;;
42802;SDS011;28447;48.682;9.022;2024-03-08T15:31:10;21.70;;;19.40;;
42802;SDS011;28447;48.682;9.022;2024-03-08T15:33:37;22.43;;;19.40;;
42802;SDS011;28447;48.682;9.022;2024-03-08T15:36:08;22.80;;;19.80;;
42802;SDS011;28447;48.682;9.022;2024-03-08T15:38:36;24.70;;;20.87;;
42802;SDS011;28447;48.682;9.022;2024-03-08T15:41:03;24.30;;;19.13;;
42802;SDS011;28447;48.682;9.022;2024-03-08T15:43:34;21.90;;;19.53;;
42802;SDS011;28447;48.682;9.022;2024-03-08T15:46:01;25.17;;;20.60;;
42802;SDS011;28447;48.682;9.022;2024-03-08T15:48:29;24.73;;;19.13;;
42802;SDS011;28447;48.682;9.022;2024-03-08T15:50:56;22.10;;;19.70;;
42802;SDS011;28447;48.682;9.022;2024-03-08T15:53:22;24.40;;;20.20;;
42802;SDS011;28447;48.682;9.022;2024-03-08T15:55:49;23.37;;;20.27;;
42802;SDS011;28447;48.682;9.022;2024-03-08T15:58:15;24.80;;;19.63;;
42802;SDS011;28447;48.682;9.022;2024-03-08T16:00:41;23.70;;;20.47;;
42802;SDS011;28447;48.682;9.022;2024-03-08T16:03:14;22.03;;;18.60;;
42802;SDS011;28447;48.682;9.022;2024-03-08T16:05:46;25.97;;;19.60;;
42802;SDS011;28447;48.682;9.022;2024-03-08T16:08:14;25.57;;;19.13;;
42802;SDS011;28447;48.682;9.022;2024-03-08T16:10:44;24.63;;;19.37;;
42802;SDS011;28447;48.682;9.022;2024-03-08T16:13:16;31.03;;;20.20;;
42802;SDS011;28447;48.682;9.022;2024-03-08T16:15:45;27.07;;;20.47;;
42802;SDS011;28447;48.682;9.022;2024-03-08T16:18:12;27.63;;;19.70;;
42802;SDS011;28447;48.682;9.022;2024-03-08T16:20:41;26.50;;;19.73;;
42802;SDS011;28447;48.682;9.022;2024-03-08T16:23:12;33.50;;;20.60;;
42802;SDS011;28447;48.682;9.022;2024-03-08T16:25:39;29.27;;;20.00;;
42802;SDS011;28447;48.682;9.022;2024-03-08T16:28:06;27.53;;;20.00;;
42802;SDS011;28447;48.682;9.022;2024-03-08T16:30:36;27.90;;;18.63;;
42802;SDS011;28447;48.682;9.022;2024-03-08T16:33:02;27.57;;;20.50;;
42802;SDS011;28447;48.682;9.022;2024-03-08T16:35:29;26.37;;;18.97;;
42802;SDS011;28447;48.682;9.022;2024-03-08T16:37:55;29.53;;;18.97;;
42802;SDS011;28447;48.682;9.022;2024-03-08T16:40:21;29.27;;;20.23;;
42802;SDS011;28447;48.682;9.022;2024-03-08T16:42:49;28.07;;;18.83;;
42802;SDS011;28447;48.682;9.022;2024-03-08T16:45:19;28.70;;;19.23;;
42802;SDS011;28447;48.682;9.022;2024-03-08T16:47:49;28.73;;;19.37;;
42802;SDS011;28447;48.682;9.022;2024-03-08T16:50:16;27.27;;;17.57;;
42802;SDS011;28447;48.682;9.022;2024-03-08T16:52:43;27.67;;;17.90;;
42802;SDS011;28447;48.682;9.022;2024-03-08T16:55:10;32.53;;;18.83;;
42802;SDS011;28447;48.682;9.022;2024-03-08T16:57:44;30.97;;;18.07;;
42802;SDS011;28447;48.682;9.022;2024-03-08T17:02:38;29.27;;;17.20;;
42802;SDS011;28447;48.682;9.022;2024-03-08T17:05:04;27.27;;;17.27;;
42802;SDS011;28447;48.682;9.022;2024-03-08T17:07:31;33.83;;;16.70;;
42802;SDS011;28447;48.682;9.022;2024-03-08T17:10:00;28.80;;;16.87;;
42802;SDS011;28447;48.682;9.022;2024-03-08T17:12:28;31.30;;;17.07;;
42802;SDS011;28447;48.682;9.022;2024-03-08T17:14:54;27.73;;;17.53;;
42802;SDS011;28447;48.682;9.022;2024-03-08T17:17:20;30.17;;;18.93;;
42802;SDS011;28447;48.682;9.022;2024-03-08T17:19:46;29.30;;;17.53;;
42802;SDS011;28447;48.682;9.022;2024-03-08T17:22:12;31.57;;;17.20;;
42802;SDS011;28447;48.682;9.022;2024-03-08T17:24:39;25.90;;;16.23;;
42802;SDS011;28447;48.682;9.022;2024-03-08T17:27:05;26.60;;;16.47;;
42802;SDS011;28447;48.682;9.022;2024-03-08T17:29:31;33.50;;;18.07;;
42802;SDS011;28447;48.682;9.022;2024-03-08T17:31:58;27.87;;;16.60;;
42802;SDS011;28447;48.682;9.022;2024-03-08T17:34:24;28.40;;;16.50;;
42802;SDS011;28447;48.682;9.022;2024-03-08T17:36:52;33.07;;;18.07;;
42802;SDS011;28447;48.682;9.022;2024-03-08T17:39:22;30.83;;;17.43;;
42802;SDS011;28447;48.682;9.022;2024-03-08T17:41:51;27.07;;;16.50;;
42802;SDS011;28447;48.682;9.022;2024-03-08T17:44:18;30.53;;;17.07;;
42802;SDS011;28447;48.682;9.022;2024-03-08T17:46:45;33.17;;;17.67;;
42802;SDS011;28447;48.682;9.022;2024-03-08T17:49:14;29.60;;;16.93;;
42802;SDS011;28447;48.682;9.022;2024-03-08T17:51:43;33.40;;;16.97;;
42802;SDS011;28447;48.682;9.022;2024-03-08T17:54:10;27.63;;;17.00;;
42802;SDS011;28447;48.682;9.022;2024-03-08T17:56:39;42.47;;;17.70;;
42802;SDS011;28447;48.682;9.022;2024-03-08T17:59:05;32.33;;;18.50;;
42802;SDS011;28447;48.682;9.022;2024-03-08T18:01:37;30.70;;;18.10;;
42802;SDS011;28447;48.682;9.022;2024-03-08T18:04:04;32.33;;;17.60;;
42802;SDS011;28447;48.682;9.022;2024-03-08T18:06:34;29.40;;;16.90;;
42802;SDS011;28447;48.682;9.022;2024-03-08T18:09:04;32.43;;;16.40;;
42802;SDS011;28447;48.682;9.022;2024-03-08T18:11:37;25.77;;;15.80;;
42802;SDS011;28447;48.682;9.022;2024-03-08T18:14:03;29.80;;;17.87;;
42802;SDS011;28447;48.682;9.022;2024-03-08T18:16:30;28.80;;;17.50;;
42802;SDS011;28447;48.682;9.022;2024-03-08T18:19:01;30.77;;;17.03;;
42802;SDS011;28447;48.682;9.022;2024-03-08T18:21:37;27.47;;;16.33;;
42802;SDS011;28447;48.682;9.022;2024-03-08T18:24:03;28.50;;;16.33;;
42802;SDS011;28447;48.682;9.022;2024-03-08T18:26:29;27.37;;;16.70;;
42802;SDS011;28447;48.682;9.022;2024-03-08T18:28:59;32.53;;;17.63;;
42802;SDS011;28447;48.682;9.022;2024-03-08T18:31:25;28.90;;;16.23;;
42802;SDS011;28447;48.682;9.022;2024-03-08T18:33:52;29.33;;;16.17;;
42802;SDS011;28447;48.682;9.022;2024-03-08T18:36:18;27.63;;;15.83;;
42802;SDS011;28447;48.682;9.022;2024-03-08T18:38:45;30.43;;;15.17;;
42802;SDS011;28447;48.682;9.022;2024-03-08T18:41:11;27.03;;;15.00;;
42802;SDS011;28447;48.682;9.022;2024-03-08T18:43:37;23.87;;;14.57;;
42802;SDS011;28447;48.682;9.022;2024-03-08T18:46:03;26.57;;;15.07;;
42802;SDS011;28447;48.682;9.022;2024-03-08T18:48:29;30.87;;;15.67;;
42802;SDS011;28447;48.682;9.022;2024-03-08T18:50:55;32.77;;;17.10;;
42802;SDS011;28447;48.682;9.022;2024-03-08T18:53:24;24.23;;;13.73;;
42802;SDS011;28447;48.682;9.022;2024-03-08T18:55:50;25.83;;;15.40;;
42802;SDS011;28447;48.682;9.022;2024-03-08T18:58:16;23.23;;;14.80;;
42802;SDS011;28447;48.682;9.022;2024-03-08T19:00:43;28.10;;;14.97;;
42802;SDS011;28447;48.682;9.022;2024-03-08T19:03:14;25.83;;;15.00;;
42802;SDS011;28447;48.682;9.022;2024-03-08T19:05:41;28.07;;;16.00;;
42802;SDS011;28447;48.682;9.022;2024-03-08T19:08:10;26.20;;;15.40;;
42802;SDS011;28447;48.682;9.022;2024-03-08T19:10:42;25.77;;;14.77;;
42802;SDS011;28447;48.682;9.022;2024-03-08T19:13:08;26.43;;;15.17;;
42802;SDS011;28447;48.682;9.022;2024-03-08T19:15:37;24.20;;;14.13;;
42802;SDS011;28447;48.682;9.022;2024-03-08T19:18:03;22.43;;;14.60;;
42802;SDS011;28447;48.682;9.022;2024-03-08T19:20:29;24.73;;;13.83;;
42802;SDS011;28447;48.682;9.022;2024-03-08T19:22:58;26.13;;;15.37;;
42802;SDS011;28447;48.682;9.022;2024-03-08T19:25:25;28.80;;;16.00;;
42802;SDS011;28447;48.682;9.022;2024-03-08T19:27:53;24.20;;;15.17;;
42802;SDS011;28447;48.682;9.022;2024-03-08T19:30:20;27.70;;;16.50;;
42802;SDS011;28447;48.682;9.022;2024-03-08T19:32:52;26.23;;;15.17;;